Time,TemperatureF,DewpointF,PressureIn,WindDirection,WindDirectionDegrees,WindSpeedMPH,WindSpeedGustMPH,Humidity,HourlyPrecipIn,Conditions,Clouds,dailyrainin,SoftwareType,DateUTC
2013-10-22 00:12:00,45.0,44.0,-100.00,East,91,0.0,-999.0,98,0.00,,,-99.99,,2013-10-22 07:12:00,
2013-10-22 00:22:00,45.0,44.0,-100.00,East,91,0.0,-999.0,98,0.00,,,-99.99,,2013-10-22 07:22:00,
2013-10-22 00:31:00,45.0,44.0,-100.00,East,91,0.0,-999.0,98,0.00,,,-99.99,,2013-10-22 07:31:00,
2013-10-22 00:42:00,45.0,44.0,-100.00,East,91,0.0,-999.0,98,0.00,,,-99.99,,2013-10-22 07:42:00,
2013-10-22 01:12:00,44.0,44.0,-100.00,ENE,65,0.0,0.0,98,0.00,,,-99.99,,2013-10-22 08:12:00,
2013-10-22 01:22:00,44.0,44.0,-100.00,ENE,65,0.0,0.0,98,0.00,,,-99.99,,2013-10-22 08:22:00,
2013-10-22 01:31:00,44.0,44.0,-100.00,ENE,65,0.0,0.0,98,0.00,,,-99.99,,2013-10-22 08:31:00,
2013-10-22 01:41:00,44.0,44.0,-100.00,ENE,65,0.0,0.0,98,0.00,,,-99.99,,2013-10-22 08:41:00,
2013-10-22 02:21:00,44.0,44.0,-100.00,East,94,0.0,0.0,98,0.00,,,-99.99,,2013-10-22 09:21:00,
2013-10-22 02:33:00,44.0,44.0,-100.00,East,94,0.0,0.0,98,0.00,,,-99.99,,2013-10-22 09:33:00,
2013-10-22 02:42:00,44.0,44.0,-100.00,East,94,0.0,0.0,98,0.00,,,-99.99,,2013-10-22 09:42:00,
2013-10-22 03:13:00,44.0,44.0,-100.00,SSE,149,0.0,0.0,98,0.00,,,-99.99,,2013-10-22 10:13:00,
2013-10-22 03:23:00,44.0,44.0,-100.00,SSE,149,0.0,0.0,98,0.00,,,-99.99,,2013-10-22 10:23:00,
2013-10-22 03:33:00,44.0,44.0,-100.00,SSE,149,0.0,0.0,98,0.00,,,-99.99,,2013-10-22 10:33:00,
2013-10-22 03:43:00,44.0,44.0,-100.00,SSE,149,0.0,0.0,98,0.00,,,-99.99,,2013-10-22 10:43:00,
2013-10-22 04:12:00,44.0,43.0,-100.00,NNW,336,1.0,5.0,98,0.00,,,-99.99,,2013-10-22 11:12:00,
2013-10-22 04:22:00,44.0,43.0,-100.00,NNW,336,1.0,5.0,98,0.00,,,-99.99,,2013-10-22 11:22:00,
2013-10-22 04:33:00,44.0,43.0,-100.00,NNW,336,1.0,5.0,98,0.00,,,-99.99,,2013-10-22 11:33:00,
2013-10-22 04:42:00,44.0,43.0,-100.00,NNW,336,1.0,5.0,98,0.00,,,-99.99,,2013-10-22 11:42:00,
2013-10-22 05:11:00,43.0,42.0,-100.00,NNE,14,1.0,-999.0,99,0.00,,,-99.99,,2013-10-22 12:11:00,
2013-10-22 05:22:00,43.0,42.0,-100.00,NNE,14,1.0,-999.0,99,0.00,,,-99.99,,2013-10-22 12:22:00,
2013-10-22 05:32:00,43.0,42.0,-100.00,NNE,14,1.0,-999.0,99,0.00,,,-99.99,,2013-10-22 12:32:00,
2013-10-22 05:42:00,43.0,42.0,-100.00,NNE,14,1.0,-999.0,99,0.00,,,-99.99,,2013-10-22 12:42:00,
2013-10-22 06:21:00,42.0,42.0,-100.00,NE,38,0.0,0.0,100,0.00,,,-99.99,,2013-10-22 13:21:00,
2013-10-22 06:32:00,42.0,42.0,-100.00,NE,38,0.0,0.0,100,0.00,,,-99.99,,2013-10-22 13:32:00,
2013-10-22 06:42:00,42.0,42.0,-100.00,NE,38,0.0,0.0,100,0.00,,,-99.99,,2013-10-22 13:42:00,
2013-10-22 07:21:00,42.0,42.0,-100.00,ESE,106,0.0,0.0,100,0.00,,,-99.99,,2013-10-22 14:21:00,
2013-10-22 07:32:00,42.0,42.0,-100.00,ESE,106,0.0,0.0,100,0.00,,,-99.99,,2013-10-22 14:32:00,
2013-10-22 07:42:00,42.0,42.0,-100.00,ESE,106,0.0,0.0,100,0.00,,,-99.99,,2013-10-22 14:42:00,
2013-10-22 08:22:00,41.0,41.0,-100.00,ESE,123,0.0,0.0,100,0.00,,,-99.99,,2013-10-22 15:22:00,
2013-10-22 08:33:00,41.0,41.0,-100.00,ESE,123,0.0,0.0,100,0.00,,,-99.99,,2013-10-22 15:33:00,
2013-10-22 08:43:00,41.0,41.0,-100.00,ESE,123,0.0,0.0,100,0.00,,,-99.99,,2013-10-22 15:43:00,
2013-10-22 09:23:00,41.0,41.0,-100.00,ESE,120,0.0,0.0,100,0.00,,,-99.99,,2013-10-22 16:23:00,
2013-10-22 09:33:00,41.0,41.0,-100.00,ESE,120,0.0,0.0,100,0.00,,,-99.99,,2013-10-22 16:33:00,
2013-10-22 09:42:00,41.0,41.0,-100.00,ESE,120,0.0,0.0,100,0.00,,,-99.99,,2013-10-22 16:42:00,
2013-10-22 10:22:00,42.0,42.0,-100.00,SSE,150,0.0,0.0,100,0.00,,,-99.99,,2013-10-22 17:22:00,
2013-10-22 10:34:00,42.0,42.0,-100.00,SSE,150,0.0,0.0,100,0.00,,,-99.99,,2013-10-22 17:34:00,
2013-10-22 10:43:00,42.0,42.0,-100.00,SSE,150,0.0,0.0,100,0.00,,,-99.99,,2013-10-22 17:43:00,
2013-10-22 11:12:00,46.0,45.0,-100.00,SW,224,1.0,4.0,96,0.00,,,-99.99,,2013-10-22 18:12:00,
2013-10-22 11:22:00,46.0,45.0,-100.00,SW,224,1.0,4.0,96,0.00,,,-99.99,,2013-10-22 18:22:00,
2013-10-22 11:32:00,46.0,45.0,-100.00,SW,224,1.0,4.0,96,0.00,,,-99.99,,2013-10-22 18:32:00,
2013-10-22 11:42:00,46.0,45.0,-100.00,SW,224,1.0,4.0,96,0.00,,,-99.99,,2013-10-22 18:42:00,
2013-10-22 12:22:00,53.0,48.0,-100.00,WSW,244,8.0,12.0,83,0.00,,,-99.99,,2013-10-22 19:22:00,
2013-10-22 12:32:00,53.0,48.0,-100.00,WSW,244,8.0,12.0,83,0.00,,,-99.99,,2013-10-22 19:32:00,
2013-10-22 12:42:00,53.0,48.0,-100.00,WSW,244,8.0,12.0,83,0.00,,,-99.99,,2013-10-22 19:42:00,
2013-10-22 13:22:00,53.0,49.0,-100.00,WSW,244,9.0,12.0,86,0.00,,,-99.99,,2013-10-22 20:22:00,
2013-10-22 13:32:00,53.0,49.0,-100.00,WSW,244,9.0,12.0,86,0.00,,,-99.99,,2013-10-22 20:32:00,
2013-10-22 15:14:00,53.0,49.0,-100.00,WSW,252,7.0,10.0,86,0.00,,,-99.99,,2013-10-22 22:14:00,
2013-10-22 15:24:00,53.0,49.0,-100.00,WSW,252,7.0,10.0,86,0.00,,,-99.99,,2013-10-22 22:24:00,
2013-10-22 15:33:00,53.0,49.0,-100.00,WSW,252,7.0,10.0,86,0.00,,,-99.99,,2013-10-22 22:33:00,
2013-10-22 15:43:00,53.0,49.0,-100.00,WSW,252,7.0,10.0,86,0.00,,,-99.99,,2013-10-22 22:43:00,
2013-10-22 16:12:00,53.0,49.0,-100.00,WSW,244,6.0,-999.0,88,0.00,,,-99.99,,2013-10-22 23:12:00,
2013-10-22 16:23:00,53.0,49.0,-100.00,WSW,244,6.0,-999.0,88,0.00,,,-99.99,,2013-10-22 23:23:00,
2013-10-22 16:34:00,53.0,49.0,-100.00,WSW,244,6.0,-999.0,88,0.00,,,-99.99,,2013-10-22 23:34:00,
2013-10-22 16:42:00,53.0,49.0,-100.00,WSW,244,6.0,-999.0,88,0.00,,,-99.99,,2013-10-22 23:42:00,
2013-10-22 17:22:00,50.0,48.0,-100.00,West,278,6.0,10.0,92,0.00,,,-99.99,,2013-10-23 00:22:00,
2013-10-22 17:32:00,50.0,48.0,-100.00,West,278,6.0,10.0,92,0.00,,,-99.99,,2013-10-23 00:32:00,
2013-10-22 17:42:00,50.0,48.0,-100.00,West,278,6.0,10.0,92,0.00,,,-99.99,,2013-10-23 00:42:00,
2013-10-22 18:23:00,49.0,48.0,-100.00,WSW,243,2.0,6.0,94,0.00,,,-99.99,,2013-10-23 01:23:00,
2013-10-22 18:32:00,49.0,48.0,-100.00,WSW,243,2.0,6.0,94,0.00,,,-99.99,,2013-10-23 01:32:00,
2013-10-22 18:42:00,49.0,48.0,-100.00,WSW,243,2.0,6.0,94,0.00,,,-99.99,,2013-10-23 01:42:00,
2013-10-22 19:11:00,48.0,47.0,-100.00,WSW,253,2.0,5.0,96,0.00,,,-99.99,,2013-10-23 02:11:00,
2013-10-22 19:22:00,48.0,47.0,-100.00,WSW,253,2.0,5.0,96,0.00,,,-99.99,,2013-10-23 02:22:00,
2013-10-22 19:32:00,48.0,47.0,-100.00,WSW,253,2.0,5.0,96,0.00,,,-99.99,,2013-10-23 02:32:00,
2013-10-22 19:42:00,48.0,47.0,-100.00,WSW,253,2.0,5.0,96,0.00,,,-99.99,,2013-10-23 02:42:00,
2013-10-22 20:11:00,47.0,46.0,-100.00,NW,317,0.0,-999.0,97,0.00,,,-99.99,,2013-10-23 03:11:00,
2013-10-22 20:22:00,47.0,46.0,-100.00,NW,317,0.0,-999.0,97,0.00,,,-99.99,,2013-10-23 03:22:00,
2013-10-22 20:34:00,47.0,46.0,-100.00,NW,317,0.0,-999.0,97,0.00,,,-99.99,,2013-10-23 03:34:00,
2013-10-22 20:44:00,47.0,46.0,-100.00,NW,317,0.0,-999.0,97,0.00,,,-99.99,,2013-10-23 03:44:00,
2013-10-22 21:14:00,46.0,45.0,-100.00,NNE,14,0.0,-999.0,98,0.00,,,-99.99,,2013-10-23 04:14:00,
2013-10-22 21:24:00,46.0,45.0,-100.00,NNE,14,0.0,-999.0,98,0.00,,,-99.99,,2013-10-23 04:24:00,
2013-10-22 21:34:00,46.0,45.0,-100.00,NNE,14,0.0,-999.0,98,0.00,,,-99.99,,2013-10-23 04:34:00,
2013-10-22 21:44:00,46.0,45.0,-100.00,NNE,14,0.0,-999.0,98,0.00,,,-99.99,,2013-10-23 04:44:00,
2013-10-22 22:13:00,45.0,45.0,-100.00,SSW,206,0.0,0.0,99,0.00,,,-99.99,,2013-10-23 05:13:00,
2013-10-22 22:22:00,45.0,45.0,-100.00,SSW,206,0.0,0.0,99,0.00,,,-99.99,,2013-10-23 05:22:00,
2013-10-22 22:34:00,45.0,45.0,-100.00,SSW,206,0.0,0.0,99,0.00,,,-99.99,,2013-10-23 05:34:00,
2013-10-22 22:43:00,45.0,45.0,-100.00,SSW,206,0.0,0.0,99,0.00,,,-99.99,,2013-10-23 05:43:00,
2013-10-22 23:12:00,45.0,45.0,-100.00,SW,220,0.0,-999.0,100,0.00,,,-99.99,,2013-10-23 06:12:00,
2013-10-22 23:22:00,45.0,45.0,-100.00,SW,220,0.0,-999.0,100,0.00,,,-99.99,,2013-10-23 06:22:00,
2013-10-22 23:32:00,45.0,45.0,-100.00,SW,220,0.0,-999.0,100,0.00,,,-99.99,,2013-10-23 06:32:00,
2013-10-22 23:42:00,45.0,45.0,-100.00,SW,220,0.0,-999.0,100,0.00,,,-99.99,,2013-10-23 06:42:00,